createdAt,value
2024-05-09T00:00:31.645Z,55.44
2024-05-09T00:01:32.235Z,55.27
2024-05-09T00:02:34.690Z,55.06
2024-05-09T00:03:37.070Z,55.03
2024-05-09T00:04:39.286Z,54.79
2024-05-09T00:05:42.992Z,54.67
2024-05-09T00:06:45.576Z,54.55
2024-05-09T00:07:47.930Z,54.71
2024-05-09T00:08:50.109Z,54.64
2024-05-09T00:09:52.518Z,54.78
2024-05-09T00:10:55.004Z,54.85
2024-05-09T00:11:57.366Z,54.80
2024-05-09T00:12:59.679Z,54.74
2024-05-09T00:14:02.066Z,54.68
2024-05-09T00:15:05.675Z,54.77
2024-05-09T00:16:09.234Z,54.71
2024-05-09T00:17:11.672Z,54.62
2024-05-09T00:18:14.274Z,54.57
2024-05-09T00:19:16.812Z,54.81
2024-05-09T00:20:24.596Z,54.87
2024-05-09T00:21:23.479Z,54.89
2024-05-09T00:22:25.735Z,54.98
2024-05-09T00:23:27.733Z,55.09
2024-05-09T00:24:29.932Z,55.18
2024-05-09T00:25:32.414Z,55.24
2024-05-09T00:26:34.784Z,55.18
2024-05-09T00:27:37.189Z,55.34
2024-05-09T00:28:39.228Z,55.29
2024-05-09T00:29:41.551Z,55.26
2024-05-09T00:30:43.904Z,55.48
2024-05-09T00:31:46.236Z,55.68
2024-05-09T00:32:48.411Z,55.77
2024-05-09T00:33:51.126Z,55.93
2024-05-09T00:34:53.787Z,56.04
2024-05-09T00:35:56.087Z,56.14
2024-05-09T00:36:58.629Z,56.25
2024-05-09T00:38:01.317Z,56.19
2024-05-09T00:39:03.913Z,56.41
2024-05-09T00:40:14.884Z,56.42
2024-05-09T00:41:11.984Z,56.57
2024-05-09T00:42:14.317Z,56.75
2024-05-09T00:43:16.545Z,56.87
2024-05-09T00:44:19.001Z,56.93
2024-05-09T00:45:21.439Z,56.93
2024-05-09T00:46:25.226Z,57.07
2024-05-09T00:47:27.680Z,57.17
2024-05-09T00:48:30.404Z,57.30
2024-05-09T00:49:35.852Z,57.60
2024-05-09T00:50:40.507Z,57.73
2024-05-09T00:51:43.375Z,57.95
2024-05-09T00:52:46.021Z,58.02
2024-05-09T00:53:48.626Z,58.08
2024-05-09T00:54:50.870Z,58.24
2024-05-09T00:55:54.372Z,58.37
2024-05-09T00:56:57.046Z,58.56
2024-05-09T00:57:59.911Z,58.60
2024-05-09T00:59:02.492Z,58.63
2024-05-09T01:00:12.184Z,58.65
2024-05-09T01:01:11.716Z,58.63
2024-05-09T01:02:15.040Z,58.64
2024-05-09T01:03:17.523Z,58.79
2024-05-09T01:04:20.449Z,58.86
2024-05-09T01:05:23.002Z,59.03
2024-05-09T01:06:25.651Z,59.12
2024-05-09T01:07:28.612Z,59.22
2024-05-09T01:08:31.263Z,59.32
2024-05-09T01:09:33.571Z,59.54
2024-05-09T01:10:36.886Z,59.54
2024-05-09T01:11:40.013Z,59.63
2024-05-09T01:12:42.268Z,59.76
2024-05-09T01:13:44.529Z,59.80
2024-05-09T01:14:46.841Z,59.94
2024-05-09T01:15:49.247Z,59.88
2024-05-09T01:16:51.804Z,60.00
2024-05-09T01:17:54.500Z,60.11
2024-05-09T01:18:58.757Z,60.21
2024-05-09T01:20:00.999Z,60.28
2024-05-09T01:21:03.688Z,60.45
2024-05-09T01:22:06.087Z,60.44
2024-05-09T01:23:09.014Z,60.57
2024-05-09T01:24:11.630Z,60.61
2024-05-09T01:25:14.138Z,60.73
2024-05-09T01:26:16.623Z,60.76
2024-05-09T01:27:18.957Z,60.81
2024-05-09T01:28:20.991Z,60.85
2024-05-09T01:29:23.374Z,60.93
2024-05-09T01:30:32.992Z,61.04
2024-05-09T01:31:30.028Z,60.96
2024-05-09T01:32:32.555Z,61.03
2024-05-09T01:33:35.228Z,61.12
2024-05-09T01:34:37.507Z,61.08
2024-05-09T01:35:39.802Z,61.19
2024-05-09T01:36:42.119Z,61.31
2024-05-09T01:37:44.604Z,61.24
2024-05-09T01:38:46.926Z,61.28
2024-05-09T01:39:49.263Z,61.39
2024-05-09T01:40:51.900Z,61.44
2024-05-09T01:41:54.247Z,61.53
2024-05-09T01:42:56.543Z,61.54
2024-05-09T01:43:58.866Z,61.53
2024-05-09T01:45:01.292Z,61.66
2024-05-09T01:46:04.006Z,61.62
2024-05-09T01:47:06.160Z,61.72
2024-05-09T01:48:09.348Z,61.73
2024-05-09T01:49:12.526Z,61.83
2024-05-09T01:50:16.668Z,61.93
2024-05-09T01:51:19.218Z,61.96
2024-05-09T01:52:21.682Z,62.04
2024-05-09T01:53:23.983Z,62.01
2024-05-09T01:54:26.426Z,61.98
2024-05-09T01:55:30.562Z,61.95
2024-05-09T01:56:32.955Z,61.95
2024-05-09T01:57:35.408Z,61.84
2024-05-09T01:58:37.689Z,61.87
2024-05-09T01:59:39.951Z,61.76
2024-05-09T02:00:43.450Z,61.85
2024-05-09T02:01:56.501Z,61.69
2024-05-09T02:02:50.274Z,61.69
2024-05-09T02:03:53.095Z,61.74
2024-05-09T02:04:55.711Z,61.74
2024-05-09T02:05:58.122Z,61.65
2024-05-09T02:07:00.726Z,61.54
2024-05-09T02:08:03.485Z,61.42
2024-05-09T02:09:06.003Z,61.44
2024-05-09T02:10:16.169Z,61.32
2024-05-09T02:11:13.065Z,61.24
2024-05-09T02:12:15.648Z,61.16
2024-05-09T02:13:18.225Z,61.04
2024-05-09T02:14:20.850Z,60.95
2024-05-09T02:15:23.068Z,60.83
2024-05-09T02:16:25.451Z,60.80
2024-05-09T02:17:28.116Z,60.67
2024-05-09T02:18:30.578Z,60.63
2024-05-09T02:19:33.150Z,60.57
2024-05-09T02:20:38.202Z,60.47
2024-05-09T02:21:40.499Z,60.42
2024-05-09T02:22:42.871Z,60.37
2024-05-09T02:23:45.244Z,60.41
2024-05-09T02:24:47.526Z,60.42
2024-05-09T02:25:50.063Z,60.46
2024-05-09T02:26:52.932Z,60.54
2024-05-09T02:27:54.916Z,60.58
2024-05-09T02:28:57.271Z,60.53
2024-05-09T02:29:59.551Z,60.42
2024-05-09T02:31:02.006Z,60.36
2024-05-09T02:32:04.922Z,60.52
2024-05-09T02:33:08.685Z,60.64
2024-05-09T02:34:11.964Z,60.57
2024-05-09T02:35:14.604Z,60.49
2024-05-09T02:36:19.831Z,60.53
2024-05-09T02:37:22.183Z,60.48
2024-05-09T02:38:24.421Z,60.36
2024-05-09T02:39:27.062Z,60.36
2024-05-09T02:40:36.426Z,60.44
2024-05-09T02:41:33.683Z,60.48
2024-05-09T02:42:36.252Z,60.50
2024-05-09T02:43:38.760Z,60.48
2024-05-09T02:44:40.808Z,60.53
2024-05-09T02:45:43.079Z,60.53
2024-05-09T02:46:45.797Z,60.47
2024-05-09T02:47:48.160Z,60.45
2024-05-09T02:48:50.550Z,60.41
2024-05-09T02:49:53.032Z,60.31
2024-05-09T02:50:55.290Z,60.35
2024-05-09T02:51:57.617Z,60.36
2024-05-09T02:52:59.770Z,60.37
2024-05-09T02:54:02.138Z,60.45
2024-05-09T02:55:04.584Z,60.60
2024-05-09T02:56:07.443Z,60.44
2024-05-09T02:57:09.975Z,60.49
2024-05-09T02:58:12.506Z,60.54
2024-05-09T02:59:14.819Z,60.54
2024-05-09T03:00:22.817Z,60.58
2024-05-09T03:01:21.930Z,60.53
2024-05-09T03:02:24.236Z,60.35
2024-05-09T03:03:27.272Z,60.22
2024-05-09T03:04:30.345Z,60.14
2024-05-09T03:05:32.955Z,60.29
2024-05-09T03:06:40.971Z,60.40
2024-05-09T03:07:43.508Z,60.18
2024-05-09T03:08:46.730Z,60.14
2024-05-09T03:09:48.945Z,60.18
2024-05-09T03:10:51.405Z,60.17
2024-05-09T03:11:53.880Z,60.27
2024-05-09T03:12:56.322Z,60.38
2024-05-09T03:13:58.666Z,60.44
2024-05-09T03:15:01.090Z,60.48
2024-05-09T03:16:04.205Z,60.44
2024-05-09T03:17:07.123Z,60.34
2024-05-09T03:18:09.943Z,60.26
2024-05-09T03:19:12.883Z,60.17
2024-05-09T03:20:23.195Z,60.13
2024-05-09T03:21:19.391Z,60.17
2024-05-09T03:22:21.618Z,60.11
2024-05-09T03:23:23.840Z,60.10
2024-05-09T03:24:26.247Z,60.16
2024-05-09T03:25:28.522Z,60.38
2024-05-09T03:26:30.822Z,60.31
2024-05-09T03:27:33.230Z,60.24
2024-05-09T03:28:35.482Z,60.24
2024-05-09T03:29:37.794Z,60.20
2024-05-09T03:30:42.777Z,60.19
2024-05-09T03:31:44.584Z,60.23
2024-05-09T03:32:47.515Z,60.21
2024-05-09T03:33:49.984Z,60.05
2024-05-09T03:34:52.363Z,60.09
2024-05-09T03:35:54.587Z,60.04
2024-05-09T03:36:56.926Z,60.07
2024-05-09T03:37:59.538Z,59.77
2024-05-09T03:39:01.732Z,59.61
2024-05-09T03:40:09.300Z,59.66
2024-05-09T03:41:09.538Z,59.74
2024-05-09T03:42:11.842Z,59.94
2024-05-09T03:43:14.227Z,60.15
2024-05-09T03:44:17.088Z,60.27
2024-05-09T03:45:19.307Z,60.41
2024-05-09T03:46:21.745Z,60.55
2024-05-09T03:47:24.252Z,60.54
2024-05-09T03:48:26.927Z,60.25
2024-05-09T03:49:29.454Z,59.82
2024-05-09T03:50:35.547Z,59.73
2024-05-09T03:51:35.839Z,59.69
2024-05-09T03:52:38.174Z,59.71
2024-05-09T03:53:40.477Z,59.60
2024-05-09T03:54:45.961Z,59.51
2024-05-09T03:55:48.327Z,59.48
2024-05-09T03:56:50.797Z,59.28
2024-05-09T03:57:53.072Z,59.02
2024-05-09T03:58:56.246Z,58.82
2024-05-09T03:59:58.738Z,58.84
2024-05-09T04:01:01.090Z,58.91
2024-05-09T04:02:03.980Z,58.76
2024-05-09T04:03:09.276Z,58.65
2024-05-09T04:04:11.132Z,58.43
2024-05-09T04:05:14.446Z,58.69
2024-05-09T04:06:25.427Z,58.21
2024-05-09T04:07:27.950Z,57.81
2024-05-09T04:08:30.269Z,57.75
2024-05-09T04:09:32.588Z,57.61
2024-05-09T04:10:35.527Z,57.48
2024-05-09T04:11:38.399Z,57.72
2024-05-09T04:12:40.732Z,57.81
2024-05-09T04:13:42.925Z,57.63
2024-05-09T04:14:44.963Z,57.32
2024-05-09T04:15:47.122Z,57.43
2024-05-09T04:16:49.822Z,57.57
2024-05-09T04:17:52.137Z,57.55
2024-05-09T04:18:55.181Z,57.26
2024-05-09T04:19:57.630Z,57.49
2024-05-09T04:21:00.296Z,57.08
2024-05-09T04:22:02.713Z,56.96
2024-05-09T04:23:07.535Z,56.76
2024-05-09T04:24:10.700Z,56.83
2024-05-09T04:25:12.977Z,56.71
2024-05-09T04:26:15.745Z,56.61
2024-05-09T04:27:18.148Z,56.32
2024-05-09T04:28:20.326Z,56.08
2024-05-09T04:29:22.596Z,56.24
2024-05-09T04:30:34.568Z,55.73
2024-05-09T04:31:29.680Z,55.90
2024-05-09T04:32:32.872Z,55.95
2024-05-09T04:33:35.185Z,55.77
2024-05-09T04:34:37.691Z,55.23
2024-05-09T04:35:40.472Z,55.52
2024-05-09T04:36:44.673Z,55.87
2024-05-09T04:37:47.177Z,55.82
2024-05-09T04:38:49.602Z,55.44
2024-05-09T04:39:51.658Z,55.46
2024-05-09T04:40:54.001Z,54.70
2024-05-09T04:41:56.435Z,54.65
2024-05-09T04:42:58.591Z,55.02
2024-05-09T04:44:01.022Z,54.29
2024-05-09T04:45:03.972Z,53.79
2024-05-09T04:46:06.592Z,54.29
2024-05-09T04:47:08.897Z,54.14
2024-05-09T04:48:11.781Z,53.94
2024-05-09T04:49:14.558Z,54.04
2024-05-09T04:50:24.679Z,53.40
2024-05-09T04:51:21.140Z,53.46
2024-05-09T04:52:23.471Z,53.96
2024-05-09T04:53:25.768Z,54.34
2024-05-09T04:54:34.326Z,54.24
2024-05-09T04:55:32.575Z,54.36
2024-05-09T04:56:35.310Z,53.88
2024-05-09T04:57:37.466Z,53.71
2024-05-09T04:58:39.923Z,52.97
2024-05-09T04:59:42.229Z,52.80
2024-05-09T05:00:45.571Z,52.54
2024-05-09T05:01:48.034Z,51.89
2024-05-09T05:02:50.499Z,51.74
2024-05-09T05:03:53.724Z,51.75
2024-05-09T05:04:57.248Z,51.98
2024-05-09T05:05:59.998Z,51.53
2024-05-09T05:07:03.078Z,51.41
2024-05-09T05:08:11.055Z,51.54
2024-05-09T05:09:13.522Z,51.18
2024-05-09T05:10:21.586Z,50.92
2024-05-09T05:11:19.971Z,50.88
2024-05-09T05:12:22.502Z,50.33
2024-05-09T05:13:25.333Z,49.78
2024-05-09T05:14:27.654Z,49.98
2024-05-09T05:15:30.108Z,50.48
2024-05-09T05:16:32.749Z,50.25
2024-05-09T05:17:35.324Z,50.41
2024-05-09T05:18:38.182Z,50.68
2024-05-09T05:19:40.725Z,50.04
2024-05-09T05:20:43.667Z,50.24
2024-05-09T05:21:46.078Z,49.16
2024-05-09T05:22:48.246Z,49.02
2024-05-09T05:23:50.732Z,48.39
2024-05-09T05:24:53.204Z,49.05
2024-05-09T05:25:55.828Z,49.34
2024-05-09T05:26:58.601Z,49.69
2024-05-09T05:28:01.054Z,49.71
2024-05-09T05:29:03.523Z,49.80
2024-05-09T05:30:11.896Z,49.73
2024-05-09T05:31:11.154Z,49.86
2024-05-09T05:32:13.631Z,48.73
2024-05-09T05:33:16.487Z,48.78
2024-05-09T05:34:19.027Z,49.10
2024-05-09T05:35:21.617Z,49.24
2024-05-09T05:36:23.961Z,48.55
2024-05-09T05:37:26.091Z,47.31
2024-05-09T05:38:28.815Z,47.43
2024-05-09T05:39:31.359Z,47.66
2024-05-09T05:40:37.078Z,47.68
2024-05-09T05:41:38.017Z,47.61
2024-05-09T05:42:40.548Z,47.44
2024-05-09T05:43:42.951Z,47.72
2024-05-09T05:44:45.350Z,47.85
2024-05-09T05:45:47.722Z,47.81
2024-05-09T05:46:50.230Z,47.67
2024-05-09T05:47:53.765Z,47.71
2024-05-09T05:48:56.545Z,48.15
2024-05-09T05:49:59.381Z,48.01
2024-05-09T05:51:04.280Z,47.46
2024-05-09T05:52:06.356Z,47.32
2024-05-09T05:53:10.924Z,46.95
2024-05-09T05:54:13.372Z,46.57
2024-05-09T05:55:15.773Z,46.56
2024-05-09T05:56:18.384Z,46.54
2024-05-09T05:57:21.208Z,46.80
2024-05-09T05:58:23.657Z,46.91
2024-05-09T05:59:26.256Z,46.48
2024-05-09T06:00:35.010Z,46.24
2024-05-09T06:01:33.464Z,46.30
2024-05-09T06:02:36.059Z,46.41
2024-05-09T06:03:38.691Z,46.05
2024-05-09T06:04:42.207Z,46.00
2024-05-09T06:05:44.868Z,46.13
2024-05-09T06:06:48.233Z,46.23
2024-05-09T06:07:50.467Z,46.47
2024-05-09T06:08:52.854Z,45.45
2024-05-09T06:09:55.840Z,44.20
2024-05-09T06:10:58.494Z,43.93
2024-05-09T06:12:01.345Z,44.48
2024-05-09T06:13:04.288Z,44.57
2024-05-09T06:14:06.684Z,44.32
2024-05-09T06:15:08.877Z,44.06
2024-05-09T06:16:13.118Z,44.48
2024-05-09T06:17:15.458Z,44.86
2024-05-09T06:18:18.599Z,45.58
2024-05-09T06:19:21.380Z,45.18
2024-05-09T06:20:31.988Z,44.54
2024-05-09T06:21:28.208Z,44.33
2024-05-09T06:22:30.674Z,43.95
2024-05-09T06:23:33.058Z,42.97
2024-05-09T06:24:35.241Z,42.68
2024-05-09T06:25:38.097Z,41.89
2024-05-09T06:26:42.830Z,42.29
2024-05-09T06:27:45.465Z,42.92
2024-05-09T06:28:47.661Z,42.95
2024-05-09T06:29:50.075Z,42.63
2024-05-09T06:30:52.776Z,42.09
2024-05-09T06:31:58.593Z,39.47
2024-05-09T06:32:59.666Z,39.31
2024-05-09T06:34:02.393Z,40.74
2024-05-09T06:35:05.475Z,41.59
2024-05-09T06:36:08.226Z,41.86
2024-05-09T06:37:10.609Z,41.25
2024-05-09T06:38:12.984Z,41.20
2024-05-09T06:39:15.666Z,41.26
2024-05-09T06:40:25.461Z,41.10
2024-05-09T06:41:22.946Z,40.59
2024-05-09T06:42:26.120Z,41.76
2024-05-09T06:43:28.389Z,42.23
2024-05-09T06:44:30.793Z,42.20
2024-05-09T06:45:33.154Z,42.13
2024-05-09T06:46:35.768Z,42.13
2024-05-09T06:47:38.350Z,42.13
2024-05-09T06:48:42.707Z,42.28
2024-05-09T06:49:45.199Z,42.10
2024-05-09T06:50:48.802Z,42.33
2024-05-09T06:51:51.597Z,42.96
2024-05-09T06:52:53.951Z,42.26
2024-05-09T06:53:56.369Z,41.50
2024-05-09T06:54:58.952Z,41.33
2024-05-09T06:56:01.307Z,41.08
2024-05-09T06:57:04.418Z,41.13
2024-05-09T06:58:07.546Z,41.33
2024-05-09T06:59:09.895Z,41.10
2024-05-09T07:00:15.625Z,41.26
2024-05-09T07:01:17.058Z,41.50
2024-05-09T07:02:19.502Z,40.70
2024-05-09T07:03:22.800Z,40.38
2024-05-09T07:04:25.343Z,40.36
2024-05-09T07:05:27.887Z,39.87
2024-05-09T07:06:30.369Z,39.69
2024-05-09T07:07:32.842Z,39.52
2024-05-09T07:08:35.407Z,40.00
2024-05-09T07:09:37.786Z,39.88
2024-05-09T07:10:40.254Z,39.43
2024-05-09T07:11:42.794Z,39.18
2024-05-09T07:12:45.366Z,39.78
2024-05-09T07:13:49.792Z,39.30
2024-05-09T07:14:52.383Z,39.75
2024-05-09T07:15:56.729Z,40.37
2024-05-09T07:16:59.205Z,39.95
2024-05-09T07:18:10.667Z,39.74
2024-05-09T07:19:13.501Z,39.79
2024-05-09T07:20:23.511Z,39.88
2024-05-09T07:21:21.209Z,39.84
2024-05-09T07:22:23.529Z,39.76
2024-05-09T07:23:25.924Z,39.29
2024-05-09T07:24:28.315Z,38.90
2024-05-09T07:25:32.539Z,38.82
2024-05-09T07:26:35.311Z,38.72
2024-05-09T07:27:37.561Z,38.83
2024-05-09T07:28:40.050Z,38.83
2024-05-09T07:29:42.343Z,37.71
2024-05-09T07:30:45.323Z,37.54
2024-05-09T07:31:48.218Z,37.21
2024-05-09T07:32:51.174Z,37.23
2024-05-09T07:33:54.036Z,37.24
2024-05-09T07:34:56.604Z,37.77
2024-05-09T07:35:58.980Z,37.43
2024-05-09T07:37:01.927Z,37.56
2024-05-09T07:38:04.354Z,37.37
2024-05-09T07:39:06.846Z,37.38
2024-05-09T07:40:12.077Z,37.41
2024-05-09T07:41:13.716Z,37.23
2024-05-09T07:42:15.774Z,37.35
2024-05-09T07:43:18.121Z,37.77
2024-05-09T07:44:20.785Z,37.49
2024-05-09T07:45:41.674Z,37.26
2024-05-09T07:47:36.776Z,37.54
2024-05-09T07:48:57.459Z,37.50
2024-05-09T07:50:34.403Z,37.80
2024-05-09T07:53:20.373Z,37.79
2024-05-09T07:53:35.529Z,37.41
2024-05-09T07:54:00.612Z,37.13
2024-05-09T07:55:02.180Z,37.48
2024-05-09T07:56:06.407Z,37.39
2024-05-09T07:57:09.191Z,36.85
2024-05-09T07:58:11.683Z,36.97
2024-05-09T07:59:14.055Z,37.22
2024-05-09T08:00:20.477Z,37.14
2024-05-09T08:01:22.148Z,37.60
2024-05-09T08:02:25.072Z,36.98
2024-05-09T08:03:27.911Z,36.53
2024-05-09T08:04:30.532Z,36.66
2024-05-09T08:05:33.023Z,36.59
2024-05-09T08:06:35.874Z,36.41
2024-05-09T08:07:38.277Z,36.84
2024-05-09T08:08:40.614Z,36.86
2024-05-09T08:09:42.763Z,36.26
2024-05-09T08:10:45.701Z,36.06
2024-05-09T08:11:49.839Z,36.23
2024-05-09T08:12:52.854Z,35.93
2024-05-09T08:13:55.588Z,36.39
2024-05-09T08:14:58.357Z,36.24
2024-05-09T08:16:00.973Z,36.55
2024-05-09T08:17:03.990Z,36.24
2024-05-09T08:18:10.000Z,36.21
2024-05-09T08:19:12.794Z,36.29
2024-05-09T08:20:22.948Z,36.55
2024-05-09T08:21:19.889Z,37.21
2024-05-09T08:22:22.360Z,36.69
2024-05-09T08:23:24.665Z,36.73
2024-05-09T08:24:26.976Z,36.68
2024-05-09T08:25:30.510Z,36.32
2024-05-09T08:26:32.895Z,36.43
2024-05-09T08:27:35.243Z,36.52
2024-05-09T08:28:37.497Z,36.91
2024-05-09T08:29:39.957Z,36.62
2024-05-09T08:30:42.525Z,36.11
2024-05-09T08:31:45.007Z,36.12
2024-05-09T08:32:47.475Z,36.53
2024-05-09T08:33:50.095Z,36.63
2024-05-09T08:34:52.662Z,36.61
2024-05-09T08:35:55.304Z,36.41
2024-05-09T08:37:01.679Z,36.50
2024-05-09T08:38:03.165Z,36.11
2024-05-09T08:39:05.848Z,36.27
2024-05-09T08:40:16.626Z,36.03
2024-05-09T08:41:14.362Z,36.01
2024-05-09T08:42:17.194Z,36.27
2024-05-09T08:43:20.048Z,36.30
2024-05-09T08:44:22.895Z,36.49
2024-05-09T08:45:25.478Z,36.82
2024-05-09T08:46:28.627Z,36.65
2024-05-09T08:47:31.561Z,36.35
2024-05-09T08:48:35.960Z,36.58
2024-05-09T08:49:51.958Z,36.78
2024-05-09T08:50:54.509Z,36.74
2024-05-09T08:51:57.945Z,36.47
2024-05-09T08:53:00.421Z,36.26
2024-05-09T08:54:02.863Z,36.49
2024-05-09T08:55:05.994Z,36.57
2024-05-09T08:56:09.146Z,36.72
2024-05-09T08:57:12.745Z,36.82
2024-05-09T08:58:16.811Z,36.95
2024-05-09T08:59:23.005Z,36.31
2024-05-09T09:00:35.585Z,36.16
2024-05-09T09:01:31.482Z,36.00
2024-05-09T09:02:36.760Z,36.25
2024-05-09T09:03:40.085Z,36.54
2024-05-09T09:04:46.348Z,35.93
2024-05-09T09:05:57.968Z,36.05
2024-05-09T09:07:02.339Z,35.81
2024-05-09T09:08:07.463Z,35.76
2024-05-09T09:09:10.749Z,35.80
2024-05-09T09:10:21.217Z,36.03
2024-05-09T09:11:19.299Z,35.58
2024-05-09T09:12:21.484Z,35.78
2024-05-09T09:13:24.298Z,35.72
2024-05-09T09:14:26.627Z,35.92
2024-05-09T09:15:29.055Z,35.80
2024-05-09T09:16:36.472Z,35.61
2024-05-09T09:17:38.707Z,36.13
2024-05-09T09:18:43.363Z,36.40
2024-05-09T09:19:45.868Z,35.65
2024-05-09T09:20:48.477Z,35.13
2024-05-09T09:21:50.811Z,34.94
2024-05-09T09:22:54.671Z,35.03
2024-05-09T09:23:57.127Z,35.26
2024-05-09T09:24:59.600Z,35.46
2024-05-09T09:26:01.933Z,35.31
2024-05-09T09:27:04.984Z,35.17
2024-05-09T09:28:08.191Z,35.16
2024-05-09T09:29:10.920Z,35.65
2024-05-09T09:30:26.858Z,35.49
2024-05-09T09:31:19.164Z,35.38
2024-05-09T09:32:25.366Z,35.41
2024-05-09T09:33:27.924Z,34.90
2024-05-09T09:34:31.185Z,35.55
2024-05-09T09:35:34.788Z,35.10
2024-05-09T09:36:38.869Z,35.23
2024-05-09T09:37:45.155Z,35.38
2024-05-09T09:38:49.815Z,35.20
2024-05-09T09:39:52.588Z,34.75
2024-05-09T09:40:55.342Z,34.46
2024-05-09T09:42:01.625Z,34.73
2024-05-09T09:43:04.863Z,35.35
2024-05-09T09:44:08.854Z,35.30
2024-05-09T09:45:12.340Z,34.84
2024-05-09T09:46:15.737Z,34.43
2024-05-09T09:47:18.610Z,34.63
2024-05-09T09:48:22.188Z,35.84
2024-05-09T09:49:31.763Z,35.54
2024-05-09T09:50:35.632Z,35.04
2024-05-09T09:51:38.292Z,34.38
2024-05-09T09:52:40.907Z,34.69
2024-05-09T09:53:43.799Z,35.02
2024-05-09T09:54:48.046Z,34.49
2024-05-09T09:55:51.577Z,34.41
2024-05-09T09:56:55.433Z,35.06
2024-05-09T09:57:58.110Z,33.89
2024-05-09T09:59:02.408Z,33.59
2024-05-09T10:00:11.646Z,33.39
2024-05-09T10:01:13.616Z,33.82
2024-05-09T10:02:18.951Z,33.38
2024-05-09T10:03:22.165Z,33.48
2024-05-09T10:04:24.653Z,34.10
2024-05-09T10:05:28.836Z,33.91
2024-05-09T10:06:33.617Z,34.47
2024-05-09T10:07:41.472Z,34.10
2024-05-09T10:08:46.054Z,33.78
2024-05-09T10:09:48.682Z,33.01
2024-05-09T10:10:51.385Z,32.94
2024-05-09T10:11:59.748Z,33.28
2024-05-09T10:13:07.570Z,33.34
2024-05-09T10:14:10.224Z,33.89
2024-05-09T10:15:12.451Z,33.79
2024-05-09T10:16:18.478Z,33.90
2024-05-09T10:17:20.846Z,33.79
2024-05-09T10:18:23.463Z,33.86
2024-05-09T10:19:26.941Z,33.93
2024-05-09T10:20:41.974Z,33.76
2024-05-09T10:21:47.250Z,33.54
2024-05-09T10:22:49.686Z,34.57
2024-05-09T10:23:58.112Z,33.92
2024-05-09T10:25:05.917Z,34.31
2024-05-09T10:26:08.801Z,34.00
2024-05-09T10:27:11.307Z,33.72
2024-05-09T10:28:13.813Z,33.66
2024-05-09T10:29:18.169Z,34.00
2024-05-09T10:30:29.565Z,34.23
2024-05-09T10:31:29.633Z,33.84
2024-05-09T10:32:39.084Z,33.93
2024-05-09T10:33:50.261Z,35.04
2024-05-09T10:35:10.763Z,34.35
2024-05-09T10:36:16.103Z,34.29
2024-05-09T10:37:18.734Z,34.48
2024-05-09T10:38:21.085Z,34.06
2024-05-09T10:39:24.912Z,34.49
2024-05-09T10:40:31.399Z,34.27
2024-05-09T10:41:32.850Z,34.74
2024-05-09T10:42:36.818Z,34.17
2024-05-09T10:43:39.879Z,35.25
2024-05-09T10:44:42.123Z,35.16
2024-05-09T10:45:44.616Z,35.06
2024-05-09T10:46:47.080Z,34.88
2024-05-09T10:47:49.654Z,34.84
2024-05-09T10:48:52.219Z,34.63
2024-05-09T10:49:55.384Z,35.23
2024-05-09T10:50:58.117Z,35.17
2024-05-09T10:52:02.991Z,35.36
2024-05-09T10:53:05.599Z,35.44
2024-05-09T10:54:07.708Z,35.53
2024-05-09T10:55:09.997Z,35.15
2024-05-09T10:56:14.729Z,34.63
2024-05-09T10:57:18.167Z,34.81
2024-05-09T10:58:20.559Z,35.27
2024-05-09T10:59:23.051Z,35.27
2024-05-09T11:00:35.803Z,35.56
2024-05-09T11:01:36.212Z,34.79
2024-05-09T11:02:38.697Z,34.70
2024-05-09T11:03:41.808Z,34.46
2024-05-09T11:04:44.690Z,34.46
2024-05-09T11:05:47.308Z,34.46
2024-05-09T11:06:50.363Z,34.49
2024-05-09T11:07:53.173Z,35.15
2024-05-09T11:08:56.157Z,34.81
2024-05-09T11:09:58.676Z,34.49
2024-05-09T11:11:01.977Z,34.84
2024-05-09T11:12:05.412Z,34.89
2024-05-09T11:13:07.872Z,33.80
2024-05-09T11:14:13.580Z,33.99
2024-05-09T11:15:16.206Z,34.55
2024-05-09T11:16:20.209Z,34.58
2024-05-09T11:17:23.274Z,34.19
2024-05-09T11:18:30.377Z,34.06
2024-05-09T11:19:35.556Z,33.97
2024-05-09T11:20:38.470Z,34.79
2024-05-09T11:21:41.352Z,34.01
2024-05-09T11:22:43.854Z,33.59
2024-05-09T11:23:46.345Z,33.43
2024-05-09T11:24:48.725Z,33.01
2024-05-09T11:25:52.197Z,32.81
2024-05-09T11:26:56.776Z,33.28
2024-05-09T11:28:00.239Z,33.20
2024-05-09T11:29:02.741Z,32.14
2024-05-09T11:30:09.184Z,31.19
2024-05-09T11:31:11.033Z,31.37
2024-05-09T11:32:13.684Z,31.84
2024-05-09T11:33:20.140Z,31.69
2024-05-09T11:34:22.752Z,30.65
2024-05-09T11:35:25.192Z,30.61
2024-05-09T11:36:27.897Z,30.10
2024-05-09T11:37:30.994Z,30.48
2024-05-09T11:38:34.425Z,29.44
2024-05-09T11:39:36.909Z,29.03
2024-05-09T11:40:39.798Z,29.15
2024-05-09T11:41:42.269Z,27.95
2024-05-09T11:42:44.694Z,28.44
2024-05-09T11:43:47.172Z,28.32
2024-05-09T11:44:49.634Z,28.30
2024-05-09T11:45:52.225Z,27.75
2024-05-09T11:46:54.898Z,28.60
2024-05-09T11:47:57.468Z,27.68
2024-05-09T11:49:00.006Z,28.16
2024-05-09T11:50:04.340Z,27.44
2024-05-09T11:51:07.048Z,27.27
2024-05-09T11:52:09.451Z,26.84
2024-05-09T11:53:12.075Z,26.89
2024-05-09T11:54:15.354Z,26.66
2024-05-09T11:55:19.251Z,26.07
2024-05-09T11:56:21.864Z,27.03
2024-05-09T11:57:24.397Z,26.64
2024-05-09T11:58:26.597Z,27.12
2024-05-09T11:59:28.985Z,27.05
2024-05-09T12:00:36.786Z,27.16
2024-05-09T12:01:36.262Z,27.16
2024-05-09T12:02:38.962Z,27.30
2024-05-09T12:03:41.215Z,27.13
2024-05-09T12:04:43.699Z,26.72
2024-05-09T12:05:46.318Z,26.68
2024-05-09T12:06:49.019Z,26.46
2024-05-09T12:07:51.902Z,25.90
2024-05-09T12:08:55.118Z,25.51
2024-05-09T12:09:57.527Z,24.82
2024-05-09T12:10:59.910Z,24.81
2024-05-09T12:12:04.220Z,24.81
2024-05-09T12:13:07.442Z,25.22
2024-05-09T12:14:10.117Z,26.03
2024-05-09T12:15:12.783Z,26.77
2024-05-09T12:16:15.881Z,26.47
2024-05-09T12:17:18.381Z,26.95
2024-05-09T12:18:20.726Z,27.33
2024-05-09T12:19:23.311Z,26.82
2024-05-09T12:20:34.343Z,25.57
2024-05-09T12:21:30.206Z,25.15
2024-05-09T12:22:32.692Z,24.71
2024-05-09T12:23:34.992Z,24.50
2024-05-09T12:24:37.354Z,24.52
2024-05-09T12:25:40.212Z,24.94
2024-05-09T12:26:43.480Z,25.69
2024-05-09T12:27:45.796Z,25.52
2024-05-09T12:28:48.100Z,26.00
2024-05-09T12:29:50.462Z,26.03
2024-05-09T12:30:53.000Z,26.52
2024-05-09T12:31:55.309Z,27.07
2024-05-09T12:32:58.284Z,26.76
2024-05-09T12:34:00.733Z,25.77
2024-05-09T12:35:03.380Z,25.86
2024-05-09T12:36:06.736Z,25.03
2024-05-09T12:37:09.455Z,24.99
2024-05-09T12:38:12.123Z,24.84
2024-05-09T12:39:14.651Z,24.51
2024-05-09T12:40:26.258Z,24.60
2024-05-09T12:41:22.101Z,24.07
2024-05-09T12:42:27.466Z,23.53
2024-05-09T12:43:28.445Z,22.92
2024-05-09T12:44:30.898Z,23.15
2024-05-09T12:45:33.515Z,23.06
2024-05-09T12:46:36.497Z,23.40
2024-05-09T12:47:39.083Z,23.57
2024-05-09T12:48:41.431Z,22.89
2024-05-09T12:49:43.771Z,22.78
2024-05-09T12:50:46.583Z,22.90
2024-05-09T12:51:48.977Z,23.97
2024-05-09T12:52:51.342Z,24.13
2024-05-09T12:53:53.670Z,24.26
2024-05-09T12:54:55.931Z,23.08
2024-05-09T12:56:02.210Z,23.43
2024-05-09T12:57:04.657Z,24.01
2024-05-09T12:58:07.688Z,24.62
2024-05-09T12:59:10.189Z,24.59
2024-05-09T13:00:23.393Z,24.78
2024-05-09T13:01:18.181Z,24.57
2024-05-09T13:02:20.672Z,24.14
2024-05-09T13:03:23.191Z,23.95
2024-05-09T13:04:26.211Z,23.81
2024-05-09T13:05:29.232Z,23.86
2024-05-09T13:06:31.981Z,23.92
2024-05-09T13:07:34.348Z,24.09
2024-05-09T13:08:36.820Z,23.80
2024-05-09T13:09:39.106Z,23.58
2024-05-09T13:10:41.849Z,23.97
2024-05-09T13:11:44.668Z,24.22
2024-05-09T13:12:47.108Z,24.51
2024-05-09T13:13:49.398Z,23.81
2024-05-09T13:14:51.570Z,23.66
2024-05-09T13:15:54.306Z,23.95
2024-05-09T13:16:57.013Z,23.82
2024-05-09T13:18:02.633Z,23.97
2024-05-09T13:19:03.759Z,23.98
2024-05-09T13:20:11.970Z,24.12
2024-05-09T13:21:11.409Z,24.03
2024-05-09T13:22:13.660Z,24.20
2024-05-09T13:23:16.217Z,24.09
2024-05-09T13:24:18.664Z,23.02
2024-05-09T13:25:22.836Z,23.15
2024-05-09T13:26:25.286Z,23.23
2024-05-09T13:27:27.522Z,23.34
2024-05-09T13:28:29.878Z,23.73
2024-05-09T13:29:32.086Z,23.73
2024-05-09T13:30:39.813Z,23.25
2024-05-09T13:31:39.391Z,23.40
2024-05-09T13:32:42.182Z,23.87
2024-05-09T13:33:44.991Z,22.77
2024-05-09T13:34:49.210Z,22.73